createdAt,value
2019-04-07T00:00:47.598Z,30.57
2019-04-07T00:03:16.527Z,28.37
2019-04-07T00:05:46.119Z,30.07
2019-04-07T00:08:15.138Z,28.13
2019-04-07T00:10:44.674Z,29.20
2019-04-07T00:13:14.155Z,28.17
2019-04-07T00:15:43.311Z,33.07
2019-04-07T00:18:13.356Z,29.30
2019-04-07T00:20:45.276Z,29.70
2019-04-07T00:23:14.808Z,34.13
2019-04-07T00:25:44.322Z,28.53
2019-04-07T00:28:13.561Z,29.50
2019-04-07T00:30:42.532Z,25.30
2019-04-07T00:33:11.910Z,27.13
2019-04-07T00:35:41.303Z,27.33
2019-04-07T00:38:10.169Z,29.30
2019-04-07T00:40:39.178Z,27.97
2019-04-07T00:43:08.805Z,30.03
2019-04-07T00:45:37.955Z,30.30
2019-04-07T00:48:06.918Z,32.03
2019-04-07T00:50:35.846Z,28.47
2019-04-07T00:53:04.701Z,29.37
2019-04-07T00:55:34.286Z,30.10
2019-04-07T00:58:03.672Z,33.03
2019-04-07T01:00:33.783Z,31.70
2019-04-07T01:03:02.940Z,30.60
2019-04-07T01:05:36.179Z,31.60
2019-04-07T01:08:03.226Z,32.43
2019-04-07T01:10:32.682Z,33.23
2019-04-07T01:13:01.647Z,32.60
2019-04-07T01:15:30.707Z,32.77
2019-04-07T01:17:59.974Z,31.73
2019-04-07T01:20:29.626Z,30.80
2019-04-07T01:22:58.502Z,31.70
2019-04-07T01:25:27.276Z,31.30
2019-04-07T01:27:56.615Z,32.23
2019-04-07T01:30:25.970Z,33.70
2019-04-07T01:32:55.535Z,32.27
2019-04-07T01:35:24.386Z,32.53
2019-04-07T01:37:53.251Z,30.73
2019-04-07T01:40:22.216Z,28.87
2019-04-07T01:43:10.652Z,28.37
2019-04-07T01:45:55.128Z,30.87
2019-04-07T01:48:34.451Z,30.20
2019-04-07T01:51:21.939Z,32.03
2019-04-07T01:54:13.062Z,32.57
2019-04-07T01:56:55.277Z,30.13
2019-04-07T01:59:36.647Z,28.40
2019-04-07T02:02:25.272Z,28.07
2019-04-07T02:05:18.805Z,28.47
2019-04-07T02:07:55.580Z,34.50
2019-04-07T02:10:30.674Z,26.63
2019-04-07T02:13:17.508Z,26.57
2019-04-07T02:15:54.920Z,27.03
2019-04-07T02:18:41.729Z,25.43
2019-04-07T02:21:15.468Z,26.57
2019-04-07T02:23:53.624Z,27.17
2019-04-07T02:26:37.842Z,27.97
2019-04-07T02:29:28.082Z,26.50
2019-04-07T02:32:03.624Z,24.67
2019-04-07T02:34:42.349Z,25.37
2019-04-07T02:37:29.567Z,27.87
2019-04-07T02:40:09.720Z,26.70
2019-04-07T02:42:50.302Z,28.93
2019-04-07T02:45:50.731Z,26.47
2019-04-07T02:48:33.804Z,30.03
2019-04-07T02:51:20.034Z,26.73
2019-04-07T02:53:59.214Z,27.90
2019-04-07T02:56:40.931Z,28.10
2019-04-07T02:59:35.420Z,33.13
2019-04-07T03:02:22.301Z,27.37
2019-04-07T03:05:02.037Z,30.47
2019-04-07T03:07:41.545Z,27.30
2019-04-07T03:10:25.165Z,25.30
2019-04-07T03:13:09.251Z,26.30
2019-04-07T03:15:48.317Z,27.37
2019-04-07T03:18:31.537Z,26.70
2019-04-07T03:21:25.627Z,29.07
2019-04-07T03:24:03.949Z,30.40
2019-04-07T03:26:55.660Z,25.73
2019-04-07T03:29:42.895Z,24.80
2019-04-07T03:32:27.668Z,27.63
2019-04-07T03:35:15.309Z,26.57
2019-04-07T03:37:50.236Z,31.33
2019-04-07T03:40:38.389Z,29.33
2019-04-07T03:43:13.804Z,29.50
2019-04-07T03:45:52.068Z,31.30
2019-04-07T03:48:28.615Z,33.40
2019-04-07T03:51:12.023Z,27.13
2019-04-07T03:53:58.132Z,24.13
2019-04-07T03:56:49.783Z,24.23
2019-04-07T03:59:34.103Z,27.07
2019-04-07T04:02:14.248Z,25.87
2019-04-07T04:05:00.959Z,29.43
2019-04-07T04:07:38.636Z,30.33
2019-04-07T04:10:14.264Z,27.47
2019-04-07T04:12:53.018Z,30.27
2019-04-07T04:15:28.275Z,28.23
2019-04-07T04:17:57.398Z,31.30
2019-04-07T04:20:26.227Z,30.93
2019-04-07T04:22:54.998Z,27.40
2019-04-07T04:25:24.494Z,31.83
2019-04-07T04:27:53.639Z,28.97
2019-04-07T04:30:22.487Z,27.53
2019-04-07T04:32:52.230Z,31.10
2019-04-07T04:35:22.375Z,30.23
2019-04-07T04:37:53.510Z,31.30
2019-04-07T04:40:22.383Z,29.27
2019-04-07T04:42:51.938Z,27.73
2019-04-07T04:45:22.380Z,29.60
2019-04-07T04:47:51.777Z,28.03
2019-04-07T04:50:21.186Z,31.10
2019-04-07T04:52:50.411Z,30.47
2019-04-07T04:55:19.555Z,34.73
2019-04-07T04:57:48.579Z,29.63
2019-04-07T05:00:20.275Z,32.77
2019-04-07T05:02:49.502Z,29.77
2019-04-07T05:05:18.460Z,32.27
2019-04-07T05:07:57.167Z,30.50
2019-04-07T05:10:19.253Z,28.63
2019-04-07T05:12:48.302Z,25.20
2019-04-07T05:15:17.513Z,27.50
2019-04-07T05:17:47.085Z,28.63
2019-04-07T05:20:16.246Z,29.67
2019-04-07T05:22:45.320Z,27.27
2019-04-07T05:25:15.624Z,27.70
2019-04-07T05:27:44.722Z,26.67
2019-04-07T05:30:13.879Z,27.50
2019-04-07T05:32:43.218Z,29.47
2019-04-07T05:35:13.157Z,30.37
2019-04-07T05:37:42.536Z,31.17
2019-04-07T05:40:12.381Z,27.07
2019-04-07T05:42:41.262Z,27.07
2019-04-07T05:45:10.316Z,28.20
2019-04-07T05:47:43.610Z,26.63
2019-04-07T05:50:10.066Z,32.17
2019-04-07T05:52:40.531Z,30.90
2019-04-07T05:55:09.809Z,28.33
2019-04-07T05:57:38.836Z,29.53
2019-04-07T06:00:13.655Z,27.40
2019-04-07T06:02:40.777Z,29.03
2019-04-07T06:05:09.828Z,26.60
2019-04-07T06:07:38.732Z,27.47
2019-04-07T06:10:08.126Z,30.03
2019-04-07T06:12:39.317Z,29.50
2019-04-07T06:15:08.238Z,45.03
2019-04-07T06:17:37.003Z,32.37
2019-04-07T06:20:06.837Z,29.60
2019-04-07T06:22:35.888Z,29.97
2019-04-07T06:25:05.779Z,28.60
2019-04-07T06:27:35.811Z,34.67
2019-04-07T06:30:07.413Z,32.53
2019-04-07T06:32:37.872Z,30.27
2019-04-07T06:35:07.467Z,31.77
2019-04-07T06:37:37.331Z,33.00
2019-04-07T06:40:06.693Z,33.77
2019-04-07T06:42:35.545Z,33.13
2019-04-07T06:45:06.267Z,31.40
2019-04-07T06:47:47.099Z,33.57
2019-04-07T06:50:25.876Z,33.30
2019-04-07T06:52:58.991Z,33.93
2019-04-07T06:55:50.503Z,32.23
2019-04-07T06:58:38.801Z,33.17
2019-04-07T07:01:15.679Z,30.83
2019-04-07T07:04:03.006Z,32.30
2019-04-07T07:06:42.232Z,28.77
2019-04-07T07:09:39.793Z,34.10
2019-04-07T07:12:39.754Z,26.60
2019-04-07T07:15:26.706Z,32.13
2019-04-07T07:18:30.637Z,28.00
2019-04-07T07:21:24.163Z,29.73
2019-04-07T07:23:52.586Z,28.53
2019-04-07T07:26:21.844Z,31.50
2019-04-07T07:28:52.119Z,31.23
2019-04-07T07:31:24.706Z,29.07
2019-04-07T07:33:52.857Z,32.63
2019-04-07T07:36:23.728Z,30.60
2019-04-07T07:38:58.995Z,34.63
2019-04-07T07:41:24.465Z,32.23
2019-04-07T07:43:54.860Z,37.27
2019-04-07T07:46:24.263Z,29.93
2019-04-07T07:48:57.044Z,29.40
2019-04-07T07:51:24.728Z,27.83
2019-04-07T07:53:56.618Z,30.43
2019-04-07T07:56:24.487Z,31.87
2019-04-07T07:58:53.921Z,32.13
2019-04-07T08:01:23.466Z,29.20
2019-04-07T08:03:54.653Z,29.73
2019-04-07T08:06:23.993Z,27.13
2019-04-07T08:09:13.741Z,29.10
2019-04-07T08:11:50.170Z,31.10
2019-04-07T08:14:33.767Z,30.07
2019-04-07T08:17:09.424Z,32.53
2019-04-07T08:19:48.153Z,30.63
2019-04-07T08:22:27.655Z,30.50
2019-04-07T08:25:03.153Z,31.47
2019-04-07T08:28:06.814Z,30.40
2019-04-07T08:30:47.540Z,27.60
2019-04-07T08:33:20.174Z,33.23
2019-04-07T08:35:54.224Z,27.97
2019-04-07T08:38:25.557Z,30.70
2019-04-07T08:41:28.848Z,33.93
2019-04-07T08:43:56.690Z,29.83
2019-04-07T08:47:23.138Z,28.17
2019-04-07T08:49:55.386Z,32.63
2019-04-07T08:52:23.422Z,34.80
2019-04-07T08:54:53.471Z,30.80
2019-04-07T08:57:22.661Z,31.83
2019-04-07T08:59:51.794Z,30.27
2019-04-07T09:02:22.436Z,30.47
2019-04-07T09:04:52.478Z,33.73
2019-04-07T09:07:24.309Z,35.23
2019-04-07T09:09:52.865Z,31.13
2019-04-07T09:12:21.879Z,33.43
2019-04-07T09:14:51.419Z,31.70
2019-04-07T09:17:33.247Z,35.10
2019-04-07T09:20:20.037Z,32.13
2019-04-07T09:22:58.230Z,29.73
2019-04-07T09:25:41.061Z,36.63
2019-04-07T09:28:33.181Z,35.40
2019-04-07T09:31:26.949Z,39.03
2019-04-07T09:34:11.557Z,33.70
2019-04-07T09:36:56.459Z,41.30
2019-04-07T09:39:58.513Z,56.33
2019-04-07T09:42:43.715Z,33.00
2019-04-07T09:45:30.647Z,37.47
2019-04-07T09:48:21.146Z,38.97
2019-04-07T09:51:02.400Z,42.37
2019-04-07T09:53:50.855Z,31.47
2019-04-07T09:56:40.681Z,40.40
2019-04-07T09:59:28.450Z,37.63
2019-04-07T10:02:15.639Z,38.27
2019-04-07T10:05:19.083Z,36.13
2019-04-07T10:08:07.365Z,35.37
2019-04-07T10:11:00.603Z,32.30
2019-04-07T10:13:40.979Z,30.07
2019-04-07T10:16:33.865Z,31.10
2019-04-07T10:19:21.533Z,34.83
2019-04-07T10:22:10.669Z,30.97
2019-04-07T10:24:58.316Z,42.30
2019-04-07T10:27:49.521Z,32.53
2019-04-07T10:30:43.560Z,38.50
2019-04-07T10:33:23.765Z,39.17
2019-04-07T10:36:14.813Z,37.37
2019-04-07T10:38:55.313Z,34.67
2019-04-07T10:41:46.427Z,34.23
2019-04-07T10:44:32.433Z,35.47
2019-04-07T10:47:21.060Z,32.03
2019-04-07T10:50:04.034Z,30.63
2019-04-07T10:52:53.486Z,35.83
2019-04-07T10:55:29.687Z,38.20
2019-04-07T10:58:05.490Z,31.90
2019-04-07T11:00:52.654Z,35.77
2019-04-07T11:03:39.517Z,33.10
2019-04-07T11:06:28.430Z,34.77
2019-04-07T11:09:21.213Z,38.67
2019-04-07T11:12:25.104Z,31.07
2019-04-07T11:15:24.986Z,33.53
2019-04-07T11:18:12.378Z,36.93
2019-04-07T11:20:49.698Z,37.10
2019-04-07T11:23:36.518Z,37.50
2019-04-07T11:26:12.550Z,40.20
2019-04-07T11:29:04.192Z,35.90
2019-04-07T11:31:48.463Z,36.83
2019-04-07T11:34:36.853Z,39.77
2019-04-07T11:37:24.720Z,37.17
2019-04-07T11:40:08.656Z,40.20
2019-04-07T11:43:03.356Z,37.83
2019-04-07T11:46:00.059Z,35.47
2019-04-07T11:48:36.040Z,39.73
2019-04-07T11:51:14.042Z,38.90
2019-04-07T11:53:55.343Z,47.90
2019-04-07T11:56:38.319Z,35.50
2019-04-07T11:59:44.776Z,39.03
2019-04-07T12:02:22.874Z,38.40
2019-04-07T12:05:09.967Z,39.00
2019-04-07T12:07:58.431Z,43.40
2019-04-07T12:10:38.868Z,40.33
2019-04-07T12:13:15.442Z,39.27
2019-04-07T12:16:06.248Z,34.67
2019-04-07T12:18:47.184Z,40.03
2019-04-07T12:21:37.026Z,39.17
2019-04-07T12:24:25.915Z,36.37
2019-04-07T12:27:10.865Z,36.93
2019-04-07T12:29:49.038Z,36.07
2019-04-07T12:32:43.409Z,36.87
2019-04-07T12:35:32.489Z,34.83
2019-04-07T12:38:12.179Z,38.23
2019-04-07T12:41:12.495Z,36.07
2019-04-07T12:43:56.214Z,36.63
2019-04-07T12:46:53.980Z,37.07
2019-04-07T12:49:35.247Z,36.23
2019-04-07T12:52:21.797Z,40.90
2019-04-07T12:55:26.687Z,41.00
2019-04-07T12:58:14.854Z,42.73
2019-04-07T13:01:06.954Z,44.17
2019-04-07T13:03:45.109Z,37.10
2019-04-07T13:06:24.219Z,36.77
2019-04-07T13:09:00.835Z,39.07
2019-04-07T13:11:49.407Z,39.60
2019-04-07T13:14:44.167Z,42.47
2019-04-07T13:17:34.410Z,37.57
2019-04-07T13:20:21.226Z,42.00
2019-04-07T13:23:09.602Z,41.87
2019-04-07T13:25:48.449Z,38.53
2019-04-07T13:28:32.953Z,39.40
2019-04-07T13:31:12.392Z,38.33
2019-04-07T13:34:02.221Z,39.90
2019-04-07T13:36:58.003Z,39.50
2019-04-07T13:39:40.282Z,42.13
2019-04-07T13:42:13.225Z,36.93
2019-04-07T13:45:03.514Z,37.43
2019-04-07T13:48:06.210Z,40.27
2019-04-07T13:50:54.469Z,34.87
2019-04-07T13:53:46.484Z,48.30
2019-04-07T13:56:22.803Z,39.97
2019-04-07T13:59:11.276Z,38.17
2019-04-07T14:02:01.742Z,34.70
2019-04-07T14:04:56.280Z,38.97
2019-04-07T14:07:37.177Z,38.03
2019-04-07T14:10:28.622Z,38.33
2019-04-07T14:13:15.851Z,37.53
2019-04-07T14:16:10.322Z,36.00
2019-04-07T14:19:07.787Z,35.07
2019-04-07T14:21:42.901Z,44.63
2019-04-07T14:24:19.882Z,39.27
2019-04-07T14:26:57.777Z,38.80
2019-04-07T14:29:39.382Z,36.73
2019-04-07T14:32:18.445Z,37.27
2019-04-07T14:34:56.595Z,44.87
2019-04-07T14:37:43.531Z,37.23
2019-04-07T14:40:30.842Z,48.73
2019-04-07T14:43:14.746Z,56.23
2019-04-07T14:45:59.053Z,47.73
2019-04-07T14:48:35.874Z,41.67
2019-04-07T14:51:27.270Z,41.40
2019-04-07T14:56:08.022Z,43.30
2019-04-07T14:58:57.291Z,48.33
2019-04-07T15:01:43.646Z,38.53
2019-04-07T15:04:13.998Z,36.57
2019-04-07T15:06:43.812Z,36.50
2019-04-07T15:09:22.475Z,32.33
2019-04-07T15:12:24.053Z,36.53
2019-04-07T15:14:50.737Z,37.80
2019-04-07T15:17:19.748Z,42.23
2019-04-07T15:19:48.825Z,43.43
2019-04-07T15:22:18.318Z,40.53
2019-04-07T15:24:47.870Z,43.00
2019-04-07T15:27:22.059Z,39.93
2019-04-07T15:29:47.432Z,41.65
2019-04-07T15:32:18.104Z,39.23
2019-04-07T15:37:21.523Z,32.33
2019-04-07T15:40:10.892Z,33.80
2019-04-07T15:42:44.170Z,35.53
2019-04-07T15:45:12.231Z,36.70
2019-04-07T15:47:42.279Z,34.73
2019-04-07T15:50:11.805Z,36.03
2019-04-07T15:53:01.590Z,33.13
2019-04-07T15:55:17.224Z,33.83
2019-04-07T15:57:46.597Z,30.97
2019-04-07T16:00:16.602Z,30.83
2019-04-07T16:02:53.638Z,34.53
2019-04-07T16:05:24.013Z,29.10
2019-04-07T16:07:55.054Z,29.80
2019-04-07T16:10:26.276Z,32.33
2019-04-07T16:13:01.462Z,32.77
2019-04-07T16:15:44.943Z,29.57
2019-04-07T16:18:13.447Z,32.03
2019-04-07T16:20:43.225Z,33.17
2019-04-07T16:24:55.064Z,32.27
2019-04-07T16:27:24.011Z,34.47
2019-04-07T16:29:53.563Z,32.70
2019-04-07T16:32:22.770Z,32.90
2019-04-07T16:34:53.068Z,32.20
2019-04-07T16:37:22.775Z,32.33
2019-04-07T16:39:52.469Z,31.53
2019-04-07T16:42:21.751Z,31.10
2019-04-07T16:44:51.444Z,28.93
2019-04-07T16:47:24.441Z,31.23
2019-04-07T16:49:51.309Z,29.83
2019-04-07T16:52:20.813Z,29.20
2019-04-07T16:54:50.521Z,33.80
2019-04-07T16:57:19.499Z,28.73
2019-04-07T16:59:48.559Z,28.33
2019-04-07T17:02:18.277Z,28.27
2019-04-07T17:04:48.339Z,26.77
2019-04-07T17:07:18.105Z,32.40
2019-04-07T17:09:48.835Z,26.57
2019-04-07T17:12:18.469Z,29.57
2019-04-07T17:14:47.395Z,28.47
2019-04-07T17:17:20.435Z,30.90
2019-04-07T17:19:47.782Z,25.30
2019-04-07T17:22:17.329Z,28.73
2019-04-07T17:24:47.723Z,26.97
2019-04-07T17:27:18.240Z,25.20
2019-04-07T17:29:52.579Z,23.93
2019-04-07T17:32:18.809Z,25.60
2019-04-07T17:34:47.883Z,27.77
2019-04-07T17:37:17.410Z,26.40
2019-04-07T17:39:54.906Z,23.80
2019-04-07T17:42:27.252Z,25.03
2019-04-07T17:45:26.270Z,24.37
2019-04-07T17:48:09.829Z,27.33
2019-04-07T17:51:01.492Z,25.67
2019-04-07T17:53:50.604Z,28.33
2019-04-07T17:56:29.703Z,28.13
2019-04-07T17:59:19.008Z,23.10
2019-04-07T18:02:14.152Z,32.00
2019-04-07T18:05:01.483Z,24.63
2019-04-07T18:07:58.882Z,25.30
2019-04-07T18:10:59.366Z,26.77
2019-04-07T18:13:49.892Z,24.97
2019-04-07T18:16:35.280Z,23.20
2019-04-07T18:19:14.157Z,25.57
2019-04-07T18:21:54.975Z,24.50
2019-04-07T18:24:32.740Z,26.57
2019-04-07T18:27:14.454Z,25.70
2019-04-07T18:30:04.004Z,21.80
2019-04-07T18:33:04.391Z,27.47
2019-04-07T18:35:56.033Z,26.60
2019-04-07T18:38:48.389Z,23.73
2019-04-07T18:41:49.407Z,22.47
2019-04-07T18:44:41.024Z,26.97
2019-04-07T18:47:33.806Z,26.07
2019-04-07T18:50:28.633Z,24.10
2019-04-07T18:53:15.512Z,22.70
2019-04-07T18:56:12.996Z,22.77
2019-04-07T18:59:09.603Z,25.90
2019-04-07T19:01:49.466Z,21.60
2019-04-07T19:04:36.967Z,23.37
2019-04-07T19:07:34.663Z,26.37
2019-04-07T19:10:24.207Z,25.80
2019-04-07T19:13:14.602Z,28.33
2019-04-07T19:15:51.258Z,20.93
2019-04-07T19:18:42.321Z,23.40
2019-04-07T19:21:31.554Z,21.13
2019-04-07T19:24:19.366Z,26.50
2019-04-07T19:27:21.236Z,26.33
2019-04-07T19:30:05.876Z,26.17
2019-04-07T19:32:56.814Z,19.67
2019-04-07T19:35:45.363Z,23.43
2019-04-07T19:38:39.852Z,22.40
2019-04-07T19:41:32.539Z,19.43
2019-04-07T19:44:13.753Z,18.33
2019-04-07T19:46:48.149Z,17.93
2019-04-07T19:49:39.094Z,20.97
2019-04-07T19:52:26.980Z,21.00
2019-04-07T19:55:07.942Z,20.90
2019-04-07T19:57:54.857Z,19.20
2019-04-07T20:00:41.605Z,22.83
2019-04-07T20:03:36.892Z,17.67
2019-04-07T20:06:22.204Z,19.57
2019-04-07T20:09:17.172Z,17.83
2019-04-07T20:12:02.470Z,17.57
2019-04-07T20:15:03.510Z,23.50
2019-04-07T20:17:55.159Z,17.87
2019-04-07T20:20:43.240Z,18.77
2019-04-07T20:23:44.025Z,14.80
2019-04-07T20:26:37.699Z,17.03
2019-04-07T20:29:44.770Z,16.87
2019-04-07T20:32:45.803Z,17.40
2019-04-07T20:35:21.347Z,18.63
2019-04-07T20:38:19.091Z,14.60
2019-04-07T20:41:12.041Z,17.83
2019-04-07T20:43:56.931Z,16.53
2019-04-07T20:46:44.796Z,14.63
2019-04-07T20:49:35.631Z,17.93
2019-04-07T20:52:25.365Z,16.57
2019-04-07T20:55:15.656Z,17.37
2019-04-07T20:58:17.292Z,17.97
2019-04-07T21:00:56.033Z,16.33
2019-04-07T21:03:32.251Z,17.30
2019-04-07T21:06:35.794Z,18.83
2019-04-07T21:09:15.220Z,17.50
2019-04-07T21:12:10.460Z,18.37
2019-04-07T21:14:49.379Z,16.90
2019-04-07T21:17:37.666Z,16.47
2019-04-07T21:20:32.091Z,19.93
2019-04-07T21:23:23.297Z,15.33
2019-04-07T21:26:27.786Z,16.33
2019-04-07T21:29:16.370Z,18.17
2019-04-07T21:31:58.002Z,17.07
2019-04-07T21:34:36.691Z,14.90
2019-04-07T21:37:28.449Z,16.60
2019-04-07T21:40:09.974Z,18.13
2019-04-07T21:42:56.814Z,18.70
2019-04-07T21:45:43.647Z,17.13
2019-04-07T21:48:28.577Z,14.93
2019-04-07T21:51:15.329Z,18.00
2019-04-07T21:54:02.708Z,17.33
2019-04-07T21:56:51.786Z,18.33
2019-04-07T21:59:52.247Z,17.80
2019-04-07T22:02:40.610Z,19.47
2019-04-07T22:05:32.853Z,15.23
2019-04-07T22:08:14.643Z,13.20
2019-04-07T22:10:40.263Z,16.27
2019-04-07T22:13:09.236Z,17.07
2019-04-07T22:15:45.767Z,17.03
2019-04-07T22:18:09.855Z,15.17
2019-04-07T22:20:39.154Z,22.80
2019-04-07T22:23:09.620Z,18.70
2019-04-07T22:25:50.592Z,15.97
2019-04-07T22:28:20.615Z,16.10
2019-04-07T22:30:50.889Z,19.60
2019-04-07T22:33:22.878Z,14.10
2019-04-07T22:35:51.282Z,13.53
2019-04-07T22:38:23.237Z,16.23
2019-04-07T22:40:52.083Z,14.73
2019-04-07T22:43:21.305Z,16.70
2019-04-07T22:45:59.282Z,17.10
2019-04-07T22:48:24.595Z,15.37
2019-04-07T22:50:52.086Z,15.83
2019-04-07T22:53:24.938Z,16.83
2019-04-07T22:55:52.721Z,12.70
2019-04-07T22:58:22.210Z,13.60
2019-04-07T23:00:52.154Z,15.07
2019-04-07T23:03:21.083Z,16.50
2019-04-07T23:05:50.139Z,15.37
2019-04-07T23:08:18.992Z,11.83
2019-04-07T23:10:47.955Z,15.27
2019-04-07T23:13:17.115Z,16.43
2019-04-07T23:15:47.355Z,13.57
2019-04-07T23:18:16.719Z,20.93
2019-04-07T23:20:45.878Z,15.03
2019-04-07T23:23:15.135Z,20.53
2019-04-07T23:25:44.659Z,18.50
2019-04-07T23:28:14.568Z,13.97
2019-04-07T23:30:43.368Z,13.00
2019-04-07T23:33:12.515Z,19.50
2019-04-07T23:35:41.914Z,18.20
2019-04-07T23:38:11.384Z,17.30
2019-04-07T23:40:40.279Z,16.07
2019-04-07T23:43:09.055Z,18.90
2019-04-07T23:45:37.860Z,16.77
2019-04-07T23:48:07.000Z,14.67
2019-04-07T23:50:36.011Z,13.43
2019-04-07T23:53:41.235Z,16.37
2019-04-07T23:56:10.088Z,13.03
2019-04-07T23:58:39.196Z,12.97
